AirNav   Everest Fuels
 
 1005 users online  

CD44 Madden Peak Heliport
Hesperus, Colorado, USA

GOING TO HESPERUS?


FAA INFORMATION EFFECTIVE 08 SEPTEMBER 2022

Location

FAA Identifier: CD44
Lat/Long: 37-20-59.9910N 108-09-02.2760W
37-20.999850N 108-09.037933W
37.3499975,-108.1506322
(estimated)
Elevation: 10039 ft. / 3060 m (estimated)
Variation: 12E (1985)
From city: 7 miles NW of HESPERUS, CO
Time zone: UTC -6 (UTC -7 during Standard Time)
Zip code: 81326

Heliport Operations

Heliport use: Private use. Permission required prior to landing
Activation date: 02/1988
Control tower: no
ARTCC: DENVER CENTER
FSS: DENVER FLIGHT SERVICE STATION
Attendance: UNATNDD
Segmented circle: no

Nearby radio navigation aids

VOR radial/distance  VOR name  Freq  Var
CEZr083/19.7CORTEZ VOR/DME114.3514E
DROr288/22.5DURANGO VOR/DME116.5514E
RSKr342/36.2RATTLESNAKE VORTAC115.3014E

Heliport Services

Runway Information

Helipad H1

Dimensions: 100 x 100 ft. / 30 x 30 m
Surface: turf
Traffic pattern: leftleft

Heliport Ownership and Management from official FAA records

Ownership: Privately-owned
Owner: CENTURYLINK
9666 METRO AIRPORT AVE
BROOMFIELD, CO 80012
Phone (303) 643-4972
Manager: DARREN ALMSKOG
9666 METRO AIRPORT AVE
BROOMFIELD, CO 80012
Phone (303) 304-9960
DARREN ALMSKOG 303-304-9960 DARREN.ALMSKOG@CENTURYLINK.COM

Additional Remarks

FOR CD CTC DENVER ARTCC AT 303-651-4257.

Instrument Procedures

There are no published instrument procedures at CD44.

Some nearby airports with instrument procedures:

KDRO - Durango-La Plata County Airport (22 nm SE)
KCEZ - Cortez Municipal Airport (23 nm W)
KFMN - Four Corners Regional Airport (37 nm S)
KTEX - Telluride Regional Airport (38 nm N)
KPSO - Stevens Field Airport (52 nm E)
 
Loc | Ops | Rwys | IFR | FBO | Links
Com | Nav | Svcs | Stats | Notes

AirBoss

 
Area around CD44 (Madden Peak Heliport)
 
Road maps at: MapQuest Bing Google
 
Aerial photo
No photo
 
Sectional chart

 
Airport distance calculator
Flying to Madden Peak Heliport? Find the distance to fly.

From to CD44

Sunrise and sunset
Times for 24-Sep-2022
 Local
(UTC-6)
 Zulu
(UTC)
Morning civil twilight06:3712:37
Sunrise07:0313:03
Sunset19:0601:06
Evening civil twilight19:3201:32

Current date and time
Zulu (UTC)  24-Sep-2022 22:58:00
Local (UTC-6)  24-Sep-2022 16:58:00
 
METAR
KDRO 
22nm SE 
242253Z AUTO 24008KT 10SM CLR 23/04 A3029 RMK AO2 SLP190 T02330044
KCEZ 
23nm W 
242253Z AUTO 26009G16KT 10SM CLR 25/01 A3025 RMK AO2 SLP187 T02500006
KFMN 
36nm S 
242253Z 28017G22KT 10SM CLR 26/M01 A3022 RMK AO2 SLP187 T02611006
KTEX 
38nm N 
242235Z AUTO 34004KT 10SM CLR 19/M13 A3047 RMK AO2
TAF
KDRO 
22nm SE 
241737Z 2418/2518 25005KT P6SM SKC FM242100 27009KT P6SM SKC FM250100 30009KT P6SM SKC FM250300 VRB04KT P6SM SKC
NOTAMs
Click for the latest NOTAMs
NOTAMs are issued by the DoD/FAA and will open in a separate window not controlled by AirNav.

 

 
 

Would you like to see your business listed on this page?

 If your business provides an interesting product or service to pilots, flight crews, aircraft, or users of the Madden Peak Heliport, you should consider listing it here.  To start the listing process, click on the button below
 
Add a business
 

Other Pages about Madden Peak Heliport

Update a link
 
Copyright © AirNav, LLC. All rights reserved. Privacy Policy  Contact